Time;durP1;ratioP1;P1;durP2;ratioP2;P2;SDS_P1;SDS_P2;PMS_P1;PMS_P2;Temp;Humidity;BMP_temperature;BMP_pressure;BME280_temperature;BME280_humidity;BME280_pressure;Samples;Min_cycle;Max_cycle;Signal;HPM_P1;HPM_P2
2023/01/31 00:02:51;;;;;;;;;13.60;13.60;;;;;7.42;57.74;97974.97;6186978;28;96443;-64
2023/01/31 00:05:54;;;;;;;;;15.00;13.50;;;;;7.38;58.26;97970.03;6205491;28;96493;-65
2023/01/31 00:08:59;;;;;;;;;14.00;13.00;;;;;7.39;58.56;97969.00;6192997;28;96338;-64
2023/01/31 00:12:04;;;;;;;;;12.20;11.40;;;;;7.34;58.89;97955.44;6208002;28;96436;-64
2023/01/31 00:15:08;;;;;;;;;12.00;11.00;;;;;7.21;59.80;97957.47;6201713;28;96978;-63
2023/01/31 00:18:12;;;;;;;;;14.00;14.00;;;;;7.25;59.73;97966.69;6199206;28;96932;-63
2023/01/31 00:21:17;;;;;;;;;13.60;12.60;;;;;7.08;60.19;97953.06;6201067;28;96302;-65
2023/01/31 00:24:20;;;;;;;;;14.60;13.60;;;;;7.19;60.49;97976.44;6192805;28;96360;-63
2023/01/31 00:27:25;;;;;;;;;15.00;13.00;;;;;7.22;60.14;97981.38;6191537;28;96868;-63
2023/01/31 00:30:29;;;;;;;;;14.40;13.00;;;;;7.18;60.34;97980.19;6201540;28;96125;-63
2023/01/31 00:33:33;;;;;;;;;13.33;13.33;;;;;7.14;60.64;97970.09;6205338;28;96331;-64
2023/01/31 00:36:37;;;;;;;;;14.20;13.00;;;;;7.11;60.77;97992.81;6205596;28;96910;-64
2023/01/31 00:39:43;;;;;;;;;15.00;15.00;;;;;7.10;60.83;97993.03;6208107;28;96550;-64
2023/01/31 00:42:48;;;;;;;;;13.00;13.00;;;;;7.05;60.96;97996.38;6201507;28;96640;-64
2023/01/31 00:45:51;;;;;;;;;15.60;14.60;;;;;7.02;61.30;97988.78;6206134;28;96793;-64
2023/01/31 00:48:55;;;;;;;;;13.40;13.00;;;;;6.94;61.49;97991.72;6191997;28;96404;-64
2023/01/31 00:51:59;;;;;;;;;15.60;15.60;;;;;6.80;62.39;97990.22;6212447;28;96165;-64
2023/01/31 00:55:03;;;;;;;;;14.60;13.60;;;;;6.84;62.24;98002.16;6202019;28;97049;-64
2023/01/31 00:58:08;;;;;;;;;13.00;12.00;;;;;6.79;62.59;97996.63;6211685;28;96346;-64
2023/01/31 01:01:17;;;;;;;;;16.00;15.00;;;;;6.86;62.41;98002.72;6214503;28;96208;-65
2023/01/31 01:04:21;;;;;;;;;12.00;11.50;;;;;6.78;62.37;97993.13;6200015;28;96281;-64
2023/01/31 01:07:26;;;;;;;;;13.75;13.75;;;;;6.81;62.46;97998.03;6197917;28;96347;-64
2023/01/31 01:10:30;;;;;;;;;16.40;15.00;;;;;6.77;62.16;97983.44;6203451;28;96320;-64
2023/01/31 01:13:35;;;;;;;;;13.00;12.40;;;;;6.86;62.13;98011.59;6208929;28;96765;-64
2023/01/31 01:16:40;;;;;;;;;14.67;14.00;;;;;6.82;62.09;98012.25;6210235;28;96755;-64
2023/01/31 01:19:44;;;;;;;;;10.60;10.00;;;;;6.81;62.29;98018.66;6194495;28;97169;-64
2023/01/31 01:22:47;;;;;;;;;10.75;9.75;;;;;6.82;62.32;98018.44;6206349;28;96304;-65
2023/01/31 01:25:51;;;;;;;;;12.00;11.60;;;;;6.81;62.30;98022.16;6192419;28;98657;-64
2023/01/31 01:28:59;;;;;;;;;12.00;10.50;;;;;6.73;62.75;98019.75;6196746;28;97505;-64
2023/01/31 01:32:05;;;;;;;;;11.00;10.00;;;;;6.69;62.85;98018.56;6192467;28;96245;-64
2023/01/31 01:35:08;;;;;;;;;11.00;9.25;;;;;6.76;62.70;98021.16;6205876;28;96625;-64
2023/01/31 01:38:12;;;;;;;;;14.60;14.20;;;;;6.74;62.97;98021.41;6188245;28;98312;-65
2023/01/31 01:41:16;;;;;;;;;14.00;13.00;;;;;6.60;62.90;98002.97;6202032;28;96520;-64
2023/01/31 01:44:47;;;;;;;;;14.80;14.00;;;;;6.66;63.08;98024.31;6189793;28;97100;-64
2023/01/31 01:47:53;;;;;;;;;15.60;14.00;;;;;6.75;62.87;98028.38;6202625;28;97091;-65
2023/01/31 01:50:59;;;;;;;;;12.60;12.60;;;;;6.75;62.97;98035.59;6207753;28;96363;-64
2023/01/31 01:54:08;;;;;;;;;13.60;12.00;;;;;6.81;63.11;98042.75;6199073;28;96459;-65
2023/01/31 01:57:15;;;;;;;;;11.00;10.00;;;;;6.87;62.76;98048.06;6200083;28;96341;-64
2023/01/31 02:00:23;;;;;;;;;12.00;12.00;;;;;6.78;62.96;98025.28;6206070;28;96248;-64
2023/01/31 02:03:27;;;;;;;;;17.00;14.75;;;;;6.85;62.93;98042.09;6202312;28;96508;-64
2023/01/31 02:06:36;;;;;;;;;12.20;11.00;;;;;6.92;62.88;98040.19;6196735;28;96830;-63
2023/01/31 02:09:47;;;;;;;;;10.60;10.60;;;;;6.92;62.87;98050.91;6210686;28;96492;-63
2023/01/31 02:12:51;;;;;;;;;11.50;11.00;;;;;6.95;62.82;98052.31;6209267;28;96309;-64
2023/01/31 02:15:57;;;;;;;;;12.60;11.00;;;;;6.89;63.00;98053.22;6211236;28;96382;-64
2023/01/31 02:19:00;;;;;;;;;11.50;11.00;;;;;6.92;63.00;98061.63;6209712;28;96475;-65
2023/01/31 02:22:21;;;;;;;;;10.40;9.40;;;;;6.96;62.76;98062.84;6201569;28;96241;-64
2023/01/31 02:25:56;;;;;;;;;11.00;11.00;;;;;6.94;62.64;98064.06;6213168;28;96447;-63
2023/01/31 02:29:28;;;;;;;;;12.00;11.00;;;;;7.07;62.60;98071.19;6203225;28;95878;-64
2023/01/31 02:32:48;;;;;;;;;8.60;8.00;;;;;7.09;62.24;98083.31;6207362;28;96315;-64
2023/01/31 02:36:04;;;;;;;;;11.25;11.00;;;;;7.12;62.13;98088.28;6192659;28;96908;-64
2023/01/31 02:39:19;;;;;;;;;11.00;9.20;;;;;7.01;62.19;98072.91;6205655;28;96316;-64
2023/01/31 02:42:29;;;;;;;;;10.60;9.60;;;;;7.19;61.60;98102.41;6198722;28;97513;-64
2023/01/31 02:45:43;;;;;;;;;13.00;12.00;;;;;7.19;61.69;98097.06;6205233;28;96226;-64
2023/01/31 02:48:57;;;;;;;;;8.25;7.25;;;;;7.23;61.37;98103.63;6197076;28;96193;-63
2023/01/31 02:52:16;;;;;;;;;10.00;10.00;;;;;7.17;61.17;98103.69;6201560;28;96383;-64
2023/01/31 02:58:56;;;;;;;;;13.00;10.50;;;;;7.19;61.34;98133.75;6206886;28;96314;-64
2023/01/31 03:02:02;;;;;;;;;14.00;12.60;;;;;7.16;61.28;98135.03;6193938;28;97073;-63
2023/01/31 03:05:08;;;;;;;;;12.00;10.00;;;;;7.15;61.24;98143.28;6188122;28;96926;-63
2023/01/31 03:08:15;;;;;;;;;8.50;8.25;;;;;7.17;60.78;98141.22;6172359;28;98696;-63
2023/01/31 03:11:30;;;;;;;;;12.00;11.00;;;;;7.22;60.59;98152.94;6204528;28;96483;-65
2023/01/31 03:14:44;;;;;;;;;13.40;12.20;;;;;7.31;60.40;98150.81;6198856;28;96281;-63
2023/01/31 03:17:57;;;;;;;;;10.00;9.00;;;;;7.37;60.14;98160.66;6202014;28;97714;-64
2023/01/31 03:21:10;;;;;;;;;13.40;11.00;;;;;7.46;59.69;98139.75;6210516;28;96375;-64
2023/01/31 03:24:16;;;;;;;;;11.00;10.00;;;;;7.44;59.08;98145.31;6197327;28;96259;-63
2023/01/31 03:27:21;;;;;;;;;10.00;9.00;;;;;7.31;58.57;98132.03;6212185;28;96702;-64
2023/01/31 03:30:34;;;;;;;;;9.60;9.00;;;;;7.47;57.88;98166.34;6207167;28;98228;-63
2023/01/31 03:33:43;;;;;;;;;9.50;8.50;;;;;7.54;57.45;98160.91;6194954;28;96943;-64
2023/01/31 03:36:55;;;;;;;;;7.00;7.00;;;;;7.57;57.23;98164.00;6183761;28;98365;-64
2023/01/31 03:40:26;;;;;;;;;7.60;7.60;;;;;7.50;57.60;98173.13;6222236;27;98305;-63
2023/01/31 03:43:38;;;;;;;;;6.20;5.20;;;;;7.61;57.23;98193.88;6210194;28;96698;-64
2023/01/31 03:46:47;;;;;;;;;9.25;9.25;;;;;7.60;57.39;98176.97;6204926;28;96233;-63
2023/01/31 03:49:54;;;;;;;;;8.25;8.00;;;;;7.48;57.32;98194.00;6190590;28;96288;-63
2023/01/31 03:53:09;;;;;;;;;9.00;9.00;;;;;7.44;57.54;98198.94;6199682;28;96817;-64
2023/01/31 03:56:18;;;;;;;;;9.60;9.40;;;;;7.50;57.32;98199.94;6186993;28;96762;-63
2023/01/31 03:59:27;;;;;;;;;8.60;8.60;;;;;7.49;57.21;98199.13;6195123;28;96313;-63
2023/01/31 04:02:35;;;;;;;;;9.20;8.20;;;;;7.52;57.21;98195.19;6183770;28;97583;-64
2023/01/31 04:05:39;;;;;;;;;7.25;6.25;;;;;7.49;57.12;98193.75;6196352;28;96688;-63
2023/01/31 04:08:45;;;;;;;;;7.00;7.00;;;;;7.60;57.12;98203.78;6195876;28;96487;-63
2023/01/31 04:11:50;;;;;;;;;9.00;8.80;;;;;7.29;57.70;98193.91;6201055;28;96321;-64
2023/01/31 04:14:54;;;;;;;;;8.00;7.60;;;;;7.36;57.51;98209.94;6195133;28;97155;-64
2023/01/31 04:17:58;;;;;;;;;8.00;8.00;;;;;7.32;57.58;98216.78;6199855;28;97222;-64
2023/01/31 04:21:02;;;;;;;;;10.00;10.00;;;;;7.39;57.27;98212.19;6196676;28;97124;-64
2023/01/31 04:24:08;;;;;;;;;10.00;9.00;;;;;7.37;57.15;98220.47;6193910;28;96291;-63
2023/01/31 04:27:12;;;;;;;;;7.60;7.00;;;;;7.34;57.15;98228.94;6198705;28;96287;-63
2023/01/31 04:30:15;;;;;;;;;9.00;7.00;;;;;7.32;57.30;98228.34;6196827;28;96316;-64
2023/01/31 04:33:19;;;;;;;;;7.80;7.80;;;;;7.36;56.86;98234.09;6190322;28;96537;-64
2023/01/31 04:36:22;;;;;;;;;8.00;8.00;;;;;7.34;56.92;98238.84;6189255;28;96392;-63
2023/01/31 04:39:27;;;;;;;;;9.00;8.00;;;;;7.36;56.86;98239.44;6200405;28;96389;-65
2023/01/31 04:42:30;;;;;;;;;12.00;11.00;;;;;7.26;56.88;98249.81;6197664;28;96406;-64
2023/01/31 04:45:34;;;;;;;;;8.40;7.40;;;;;7.37;56.88;98257.19;6191842;28;96252;-65
2023/01/31 04:48:38;;;;;;;;;7.00;6.00;;;;;7.42;56.64;98257.34;6198379;28;96910;-63
2023/01/31 04:51:41;;;;;;;;;7.60;7.60;;;;;7.36;56.44;98268.94;6208047;28;96342;-63
2023/01/31 04:54:46;;;;;;;;;7.50;7.50;;;;;7.31;56.41;98266.09;6204006;28;97040;-63
2023/01/31 04:57:50;;;;;;;;;8.25;7.00;;;;;7.40;56.49;98291.59;6200542;28;97101;-64
2023/01/31 05:00:54;;;;;;;;;5.60;4.60;;;;;7.24;56.84;98284.06;6206435;28;96316;-63
2023/01/31 05:03:57;;;;;;;;;9.25;8.00;;;;;7.15;57.31;98283.50;6192294;28;98594;-63
2023/01/31 05:07:00;;;;;;;;;6.00;5.50;;;;;7.11;57.36;98290.31;6204761;28;96307;-65
2023/01/31 05:10:06;;;;;;;;;7.00;7.00;;;;;7.15;57.66;98294.22;6191542;28;96253;-64
2023/01/31 05:13:10;;;;;;;;;5.80;5.20;;;;;7.18;57.71;98293.81;6200830;28;96205;-64
2023/01/31 05:16:13;;;;;;;;;6.00;5.00;;;;;7.13;58.30;98300.84;6199991;28;96390;-64
2023/01/31 05:19:17;;;;;;;;;7.00;7.00;;;;;7.16;58.34;98303.91;6208350;28;96314;-64
2023/01/31 05:22:21;;;;;;;;;4.60;4.60;;;;;7.20;58.35;98315.03;6195139;28;96359;-64
2023/01/31 05:25:26;;;;;;;;;5.60;5.00;;;;;7.17;58.22;98315.47;6191790;28;96681;-64
2023/01/31 05:28:30;;;;;;;;;3.00;3.00;;;;;7.08;58.35;98314.06;6203216;28;96181;-63
2023/01/31 05:31:33;;;;;;;;;5.60;5.20;;;;;6.96;58.46;98322.75;6192905;28;96234;-65
2023/01/31 05:34:38;;;;;;;;;8.00;8.00;;;;;7.03;58.25;98336.16;6199190;28;96344;-63
2023/01/31 05:37:41;;;;;;;;;6.00;6.00;;;;;7.08;57.82;98335.50;6198830;28;96349;-64
2023/01/31 05:40:46;;;;;;;;;8.00;6.60;;;;;6.96;57.62;98338.84;6200308;28;96299;-64
2023/01/31 05:43:50;;;;;;;;;8.25;7.50;;;;;6.99;57.83;98350.19;6191037;28;96245;-64
2023/01/31 05:46:53;;;;;;;;;10.00;8.40;;;;;6.97;57.64;98337.00;6203143;28;97210;-63
2023/01/31 05:49:57;;;;;;;;;6.60;6.00;;;;;6.96;57.61;98349.56;6207372;28;96995;-63
2023/01/31 05:53:01;;;;;;;;;5.00;4.20;;;;;6.93;57.13;98357.19;6196758;28;96990;-65
2023/01/31 05:56:07;;;;;;;;;7.00;6.00;;;;;7.00;56.88;98360.66;6194963;28;96672;-64
2023/01/31 05:59:10;;;;;;;;;7.40;6.40;;;;;7.05;56.67;98373.44;6193065;28;96535;-64
2023/01/31 06:02:14;;;;;;;;;7.00;7.00;;;;;7.10;56.37;98370.94;6198308;28;96923;-64
2023/01/31 06:05:17;;;;;;;;;6.00;6.00;;;;;7.10;56.19;98370.94;6213125;28;96615;-65
2023/01/31 06:08:21;;;;;;;;;7.20;6.80;;;;;7.07;56.15;98384.78;6197817;28;96268;-64
2023/01/31 06:11:26;;;;;;;;;8.00;8.00;;;;;7.14;55.74;98389.06;6194574;28;97555;-64
2023/01/31 06:14:29;;;;;;;;;5.50;5.00;;;;;7.13;55.61;98376.72;6205533;28;96396;-64
2023/01/31 06:17:33;;;;;;;;;9.00;7.40;;;;;7.20;55.34;98387.41;6191137;28;96322;-63
2023/01/31 06:20:37;;;;;;;;;7.00;6.00;;;;;7.19;55.04;98402.66;6201660;28;96262;-64
2023/01/31 06:23:44;;;;;;;;;6.00;6.00;;;;;7.14;55.05;98412.38;6198643;28;96425;-63
2023/01/31 06:26:49;;;;;;;;;6.40;6.00;;;;;7.16;55.07;98415.66;6201392;28;96254;-63
2023/01/31 06:29:53;;;;;;;;;7.20;6.80;;;;;7.27;54.99;98421.22;6203594;28;97141;-64
2023/01/31 06:32:59;;;;;;;;;5.60;4.60;;;;;7.29;54.96;98429.03;6211033;28;96340;-64
2023/01/31 06:36:03;;;;;;;;;5.00;5.00;;;;;7.31;54.90;98437.69;6201170;28;97215;-64
2023/01/31 06:39:07;;;;;;;;;7.75;6.75;;;;;7.37;55.19;98447.56;6197825;28;96764;-64
2023/01/31 06:42:11;;;;;;;;;6.60;6.40;;;;;7.33;55.25;98435.63;6196941;28;96398;-64
2023/01/31 06:45:16;;;;;;;;;7.00;6.00;;;;;7.21;55.66;98443.50;6201644;28;96241;-64
2023/01/31 06:48:19;;;;;;;;;5.00;5.00;;;;;7.15;56.03;98452.38;6203099;28;96362;-64
2023/01/31 06:51:23;;;;;;;;;9.50;8.50;;;;;7.11;56.16;98450.31;6189816;28;96241;-64
2023/01/31 06:54:26;;;;;;;;;7.25;6.00;;;;;7.23;56.34;98457.50;6191931;28;97449;-64
2023/01/31 06:57:31;;;;;;;;;5.25;4.25;;;;;7.30;56.24;98476.25;6192031;28;96886;-63
2023/01/31 07:00:34;;;;;;;;;9.00;8.00;;;;;7.29;56.07;98475.44;6189368;28;96045;-65
2023/01/31 07:03:38;;;;;;;;;8.00;8.00;;;;;7.35;56.00;98479.13;6189234;28;96276;-66
2023/01/31 07:06:41;;;;;;;;;10.40;10.00;;;;;7.27;55.88;98487.41;6207846;28;96708;-64
2023/01/31 07:09:45;;;;;;;;;8.00;7.00;;;;;7.37;55.51;98498.53;6198987;28;96325;-65
2023/01/31 07:12:49;;;;;;;;;7.00;7.00;;;;;7.46;55.38;98502.63;6210036;28;96353;-64
2023/01/31 07:15:52;;;;;;;;;7.00;6.60;;;;;7.56;54.92;98512.91;6200204;28;96282;-65
2023/01/31 07:18:56;;;;;;;;;6.40;5.60;;;;;7.47;55.03;98519.53;6205868;28;96895;-64
2023/01/31 07:22:00;;;;;;;;;6.80;5.80;;;;;7.25;54.93;98514.44;6199458;28;96816;-64
2023/01/31 07:25:03;;;;;;;;;10.00;9.00;;;;;7.48;54.77;98529.25;6200462;28;96740;-64
2023/01/31 07:28:09;;;;;;;;;7.00;7.00;;;;;7.51;54.61;98539.53;6189725;28;96232;-64
2023/01/31 07:31:14;;;;;;;;;7.20;7.00;;;;;7.42;54.69;98536.28;6194163;28;96465;-64
2023/01/31 07:34:20;;;;;;;;;10.00;10.00;;;;;7.45;54.88;98540.38;6192861;28;98439;-64
2023/01/31 07:37:23;;;;;;;;;8.50;8.00;;;;;7.52;54.41;98552.75;6204660;28;96532;-63
2023/01/31 07:40:27;;;;;;;;;8.60;7.60;;;;;7.40;54.31;98551.72;6192426;28;97530;-65
2023/01/31 07:43:32;;;;;;;;;7.25;7.00;;;;;7.52;54.41;98549.25;6196225;28;96666;-63
2023/01/31 07:46:36;;;;;;;;;8.50;8.00;;;;;7.51;54.30;98544.91;6204583;28;96333;-64
2023/01/31 07:49:39;;;;;;;;;9.20;9.00;;;;;7.49;54.39;98558.50;6192855;28;96381;-65
2023/01/31 07:52:42;;;;;;;;;10.40;8.00;;;;;7.27;54.19;98509.69;6200685;28;96289;-63
2023/01/31 07:55:46;;;;;;;;;11.00;9.00;;;;;7.52;54.06;98557.28;6196019;28;96867;-63
2023/01/31 07:58:51;;;;;;;;;8.25;7.00;;;;;7.61;53.84;98551.47;6187601;28;96228;-64
2023/01/31 08:05:15;;;;;;;;;9.25;8.75;;;;;7.67;53.83;98555.97;6198739;28;97552;-64
2023/01/31 08:08:19;;;;;;;;;6.60;5.60;;;;;7.73;53.61;98562.38;6197149;28;96456;-64
2023/01/31 08:11:22;;;;;;;;;9.00;9.00;;;;;7.55;53.97;98559.53;6189327;28;96979;-64
2023/01/31 08:14:27;;;;;;;;;9.00;8.00;;;;;7.45;54.32;98564.50;6188277;28;96386;-65
2023/01/31 08:17:31;;;;;;;;;9.00;8.00;;;;;7.52;54.63;98562.66;6188060;28;96286;-64
2023/01/31 08:20:36;;;;;;;;;11.00;10.60;;;;;7.55;54.60;98565.72;6188213;28;96287;-64
2023/01/31 08:23:40;;;;;;;;;8.80;8.60;;;;;7.59;54.67;98572.31;6190845;28;96522;-64
2023/01/31 08:26:44;;;;;;;;;10.00;10.00;;;;;7.50;54.50;98578.94;6199564;28;97403;-64
2023/01/31 08:29:50;;;;;;;;;10.40;10.40;;;;;7.63;54.38;98589.63;6208769;28;96826;-64
2023/01/31 08:32:53;;;;;;;;;12.60;10.00;;;;;7.75;54.18;98597.88;6205308;28;96339;-64
2023/01/31 08:35:57;;;;;;;;;12.00;11.00;;;;;7.71;53.60;98599.34;6196090;28;96230;-64
2023/01/31 08:39:00;;;;;;;;;9.50;9.00;;;;;7.58;53.48;98586.75;6201215;28;96265;-64
2023/01/31 08:42:04;;;;;;;;;11.00;9.00;;;;;7.75;53.10;98601.38;6198744;28;96423;-64
2023/01/31 08:45:09;;;;;;;;;12.00;11.00;;;;;7.79;52.94;98610.66;6203288;28;96211;-64
2023/01/31 08:48:13;;;;;;;;;11.00;10.00;;;;;7.79;52.62;98610.66;6207740;28;96231;-64
2023/01/31 08:51:17;;;;;;;;;10.80;9.40;;;;;7.78;52.48;98605.50;6200231;28;96425;-64
2023/01/31 08:54:20;;;;;;;;;12.00;11.00;;;;;7.77;52.38;98607.34;6207867;28;96199;-64
2023/01/31 08:57:23;;;;;;;;;11.00;9.60;;;;;7.75;52.37;98616.66;6199241;28;96438;-64
2023/01/31 09:00:29;;;;;;;;;10.25;8.25;;;;;7.65;52.84;98609.03;6215455;28;96437;-64
2023/01/31 09:03:33;;;;;;;;;10.40;10.00;;;;;7.62;53.23;98598.75;6207849;28;96202;-64
2023/01/31 09:06:36;;;;;;;;;12.00;12.00;;;;;7.84;53.30;98620.75;6201473;28;98138;-64
2023/01/31 09:09:41;;;;;;;;;12.50;10.00;;;;;7.87;52.86;98635.63;6201776;28;96543;-64
2023/01/31 09:12:45;;;;;;;;;12.00;12.00;;;;;7.89;53.21;98623.63;6200055;28;96144;-64
2023/01/31 09:15:57;;;;;;;;;8.80;7.80;;;;;7.92;52.60;98630.44;6200271;28;96298;-64
2023/01/31 09:19:00;;;;;;;;;10.00;10.00;;;;;8.22;51.83;98634.25;6191613;28;97170;-64
2023/01/31 09:22:04;;;;;;;;;12.00;10.75;;;;;8.28;51.11;98630.72;6205258;28;98407;-64
2023/01/31 09:25:09;;;;;;;;;12.60;11.20;;;;;8.39;50.89;98634.63;6212206;28;96425;-64
2023/01/31 09:28:12;;;;;;;;;11.40;10.40;;;;;8.37;50.17;98631.34;6195672;28;97140;-64
2023/01/31 09:31:19;;;;;;;;;7.00;6.00;;;;;8.36;49.92;98632.38;6207580;28;96345;-64
2023/01/31 09:34:23;;;;;;;;;9.00;8.20;;;;;8.42;49.63;98634.19;6191911;28;96416;-64
2023/01/31 09:37:29;;;;;;;;;10.60;9.60;;;;;8.50;49.93;98626.72;6207557;28;96487;-64
2023/01/31 09:40:35;;;;;;;;;10.00;10.00;;;;;8.40;49.55;98630.94;6201640;28;96364;-65
2023/01/31 09:43:44;;;;;;;;;13.60;12.60;;;;;8.38;49.60;98638.34;6197660;28;96859;-64
2023/01/31 09:46:55;;;;;;;;;10.00;9.00;;;;;8.46;49.26;98636.25;6214036;28;96363;-64
2023/01/31 09:50:03;;;;;;;;;12.00;11.00;;;;;8.49;49.02;98638.53;6201632;28;96930;-64
2023/01/31 09:53:06;;;;;;;;;10.20;9.00;;;;;8.59;49.13;98636.19;6188591;28;96553;-63
2023/01/31 09:56:24;;;;;;;;;13.00;10.25;;;;;8.54;48.81;98636.03;6214462;28;96197;-64
2023/01/31 09:59:35;;;;;;;;;13.00;11.60;;;;;8.55;48.94;98634.97;6198973;28;96526;-65
2023/01/31 10:02:58;;;;;;;;;13.40;12.40;;;;;8.79;48.85;98635.25;6205107;28;96846;-65
2023/01/31 10:06:10;;;;;;;;;11.60;10.60;;;;;8.68;48.91;98640.28;6209185;28;96416;-65
2023/01/31 10:09:21;;;;;;;;;13.00;12.00;;;;;8.54;49.44;98633.34;6207957;28;96274;-65
2023/01/31 10:12:32;;;;;;;;;12.00;11.00;;;;;8.56;49.43;98630.41;6174848;28;97147;-64
2023/01/31 10:15:40;;;;;;;;;11.25;11.00;;;;;8.61;49.17;98622.53;6208218;28;96336;-63
2023/01/31 10:18:49;;;;;;;;;9.00;9.00;;;;;8.54;49.80;98627.13;6204041;28;96355;-63
2023/01/31 10:21:58;;;;;;;;;13.00;12.00;;;;;8.60;49.93;98632.44;6199850;28;96316;-65
2023/01/31 10:25:17;;;;;;;;;13.00;12.00;;;;;8.70;50.10;98637.34;6202086;28;96227;-65
2023/01/31 10:28:27;;;;;;;;;9.00;9.00;;;;;8.69;50.04;98641.94;6200278;28;96212;-65
2023/01/31 10:31:36;;;;;;;;;10.00;9.00;;;;;8.50;50.11;98632.09;6198857;28;96517;-65
2023/01/31 10:34:45;;;;;;;;;10.60;9.00;;;;;8.60;50.02;98643.19;6204847;28;96916;-64
2023/01/31 10:37:51;;;;;;;;;10.00;10.00;;;;;8.37;50.44;98639.38;6207118;28;96506;-65
2023/01/31 10:41:01;;;;;;;;;12.00;11.00;;;;;8.36;50.67;98635.88;6204364;28;96876;-64
2023/01/31 10:44:13;;;;;;;;;12.00;10.00;;;;;8.44;50.11;98640.19;6199420;28;96374;-63
2023/01/31 10:47:19;;;;;;;;;8.50;7.50;;;;;8.60;49.86;98653.94;6199744;28;96373;-64
2023/01/31 10:50:31;;;;;;;;;8.00;7.00;;;;;8.71;49.18;98652.44;6198997;28;95982;-63
2023/01/31 10:54:16;;;;;;;;;10.40;10.00;;;;;8.54;49.00;98622.59;6198832;28;97237;-63
2023/01/31 10:57:20;;;;;;;;;12.00;11.75;;;;;8.80;48.24;98647.63;6198341;28;96242;-64
2023/01/31 11:00:28;;;;;;;;;11.00;10.00;;;;;9.05;47.81;98645.81;6200197;28;97030;-64
2023/01/31 11:03:32;;;;;;;;;9.00;8.60;;;;;9.11;47.48;98643.09;6189915;28;96889;-64
2023/01/31 11:06:36;;;;;;;;;9.00;8.80;;;;;9.21;46.69;98644.47;6190544;28;96875;-64
2023/01/31 11:09:43;;;;;;;;;10.00;10.00;;;;;9.20;46.49;98643.63;6203711;28;96071;-64
2023/01/31 11:12:53;;;;;;;;;9.00;9.00;;;;;8.94;46.09;98630.41;6200563;28;96769;-64
2023/01/31 11:15:56;;;;;;;;;9.00;9.00;;;;;9.05;46.63;98632.38;6204402;28;96863;-63
2023/01/31 11:19:03;;;;;;;;;13.00;11.40;;;;;9.09;46.06;98631.72;6199329;28;96399;-64
2023/01/31 11:22:17;;;;;;;;;10.00;8.00;;;;;8.99;45.85;98634.06;6198358;28;96527;-63
2023/01/31 11:25:25;;;;;;;;;12.00;10.00;;;;;9.00;45.03;98640.28;6189009;28;97313;-64
2023/01/31 11:28:36;;;;;;;;;10.00;10.00;;;;;8.82;44.88;98629.44;6189165;28;98111;-63
2023/01/31 11:31:44;;;;;;;;;11.00;10.00;;;;;8.73;45.23;98625.38;6192445;28;96285;-65
2023/01/31 11:34:56;;;;;;;;;13.40;11.40;;;;;8.64;44.58;98633.69;6192039;28;96798;-64
2023/01/31 11:38:04;;;;;;;;;11.00;11.00;;;;;8.69;45.13;98635.72;6194147;28;96319;-64
2023/01/31 11:41:35;;;;;;;;;10.40;10.40;;;;;8.95;45.91;98630.16;6201806;28;96746;-65
2023/01/31 11:44:55;;;;;;;;;10.50;9.50;;;;;8.99;45.97;98642.13;6155942;28;97916;-64
2023/01/31 11:48:07;;;;;;;;;7.00;7.00;;;;;8.91;46.03;98642.41;6212435;28;96197;-63
2023/01/31 11:51:22;;;;;;;;;9.00;8.00;;;;;9.08;45.62;98631.97;6205236;28;96617;-64
2023/01/31 11:54:31;;;;;;;;;9.00;8.00;;;;;9.02;45.57;98630.97;6188767;28;96864;-66
2023/01/31 11:57:38;;;;;;;;;12.00;12.00;;;;;9.09;45.57;98625.50;6215990;28;96313;-66
2023/01/31 12:00:52;;;;;;;;;10.40;10.40;;;;;9.07;45.34;98635.69;6226779;28;96261;-66
2023/01/31 12:03:58;;;;;;;;;8.60;8.60;;;;;8.95;46.20;98626.66;6226189;28;96894;-66
2023/01/31 12:07:20;;;;;;;;;9.00;9.00;;;;;8.86;46.32;98631.47;6239086;28;97466;-67
2023/01/31 12:10:42;;;;;;;;;7.50;6.75;;;;;8.74;46.99;98629.72;6219414;28;96227;-66
2023/01/31 12:13:47;;;;;;;;;9.00;8.00;;;;;9.14;46.60;98631.88;6228933;28;96745;-66
2023/01/31 12:16:55;;;;;;;;;8.40;7.40;;;;;9.83;44.98;98612.00;6222151;28;96677;-66
2023/01/31 12:20:22;;;;;;;;;10.00;8.60;;;;;10.44;43.82;98619.19;6215854;28;96785;-66
2023/01/31 12:23:42;;;;;;;;;9.00;8.00;;;;;10.44;42.94;98613.81;6215059;28;96584;-67
2023/01/31 12:26:52;;;;;;;;;11.00;10.60;;;;;10.08;43.15;98603.84;6217646;28;96709;-66
2023/01/31 12:30:16;;;;;;;;;7.20;7.20;;;;;10.11;43.38;98613.38;6214835;28;96540;-67
2023/01/31 12:33:38;;;;;;;;;9.00;8.00;;;;;9.79;43.29;98607.28;6221635;28;97166;-66
2023/01/31 12:36:51;;;;;;;;;6.25;6.00;;;;;9.69;43.27;98599.72;6224212;28;97103;-66
2023/01/31 12:40:06;;;;;;;;;10.00;9.00;;;;;9.78;42.43;98597.56;6218188;28;96819;-66
2023/01/31 12:43:44;;;;;;;;;7.50;6.25;;;;;9.89;42.08;98602.22;6215454;28;96472;-65
2023/01/31 12:47:03;;;;;;;;;8.60;8.00;;;;;9.97;41.83;98601.91;6218441;28;96371;-65
2023/01/31 12:50:26;;;;;;;;;8.40;7.40;;;;;9.95;41.89;98610.22;6229317;28;96313;-66
2023/01/31 12:53:55;;;;;;;;;8.00;7.60;;;;;9.90;41.52;98601.16;6229544;28;96334;-66
2023/01/31 12:57:11;;;;;;;;;9.60;8.60;;;;;9.87;41.58;98601.63;6226479;28;97172;-66
2023/01/31 13:00:37;;;;;;;;;9.20;8.80;;;;;10.13;41.69;98597.78;6229781;28;97430;-66
2023/01/31 13:04:09;;;;;;;;;10.60;10.60;;;;;10.52;40.15;98591.09;6227711;28;96293;-66
2023/01/31 13:07:16;;;;;;;;;11.00;9.40;;;;;10.42;40.24;98583.56;6226378;28;96326;-66
2023/01/31 13:10:28;;;;;;;;;8.00;7.00;;;;;10.61;40.25;98579.75;6225511;28;96270;-67
2023/01/31 13:13:37;;;;;;;;;11.00;11.00;;;;;10.76;41.01;98576.66;6226544;27;96942;-67
2023/01/31 13:16:45;;;;;;;;;9.60;9.60;;;;;10.60;41.82;98590.78;6241068;28;96818;-67
2023/01/31 13:19:51;;;;;;;;;7.60;7.60;;;;;10.46;42.11;98584.75;6232129;28;96251;-67
2023/01/31 13:22:57;;;;;;;;;9.20;9.00;;;;;10.18;42.96;98581.81;6228699;28;96513;-67
2023/01/31 13:26:07;;;;;;;;;10.00;9.00;;;;;10.35;43.16;98580.16;6231268;27;96267;-67
2023/01/31 13:29:17;;;;;;;;;11.40;11.40;;;;;10.63;42.78;98591.16;6227056;27;96172;-66
2023/01/31 13:32:28;;;;;;;;;9.75;8.75;;;;;10.39;42.87;98589.41;6230026;28;96323;-66
2023/01/31 13:35:36;;;;;;;;;10.20;9.20;;;;;10.10;43.13;98598.25;6231190;27;96685;-67
2023/01/31 13:38:42;;;;;;;;;9.75;8.75;;;;;9.76;44.08;98565.50;6238964;27;96314;-67
2023/01/31 13:45:27;;;;;;;;;11.40;11.00;;;;;9.56;44.85;98587.25;7057426;22;98763;-66
2023/01/31 13:48:37;;;;;;;;;14.00;13.00;;;;;9.52;45.29;98577.97;6191145;28;96352;-67
2023/01/31 13:51:46;;;;;;;;;13.00;12.00;;;;;9.52;45.33;98577.97;6195142;28;96128;-67
2023/01/31 13:54:54;;;;;;;;;12.00;10.50;;;;;9.22;45.50;98560.88;6196087;28;96155;-67
2023/01/31 13:58:03;;;;;;;;;14.00;13.00;;;;;9.20;45.77;98573.72;6195744;28;96854;-67
2023/01/31 14:01:13;;;;;;;;;13.00;12.00;;;;;9.18;46.00;98586.56;6205648;27;96275;-67
2023/01/31 14:04:24;;;;;;;;;14.80;12.00;;;;;9.01;46.28;98580.06;6194725;27;96226;-67
2023/01/31 14:07:28;;;;;;;;;15.00;14.00;;;;;8.93;46.32;98581.19;6194857;28;96668;-67
2023/01/31 14:10:37;;;;;;;;;12.00;11.00;;;;;8.72;46.83;98581.53;6195304;27;97202;-67
2023/01/31 14:13:43;;;;;;;;;14.50;13.00;;;;;8.74;47.17;98584.84;6193872;28;96438;-66
2023/01/31 14:16:48;;;;;;;;;11.00;9.25;;;;;8.61;47.71;98585.72;6192337;27;96252;-67
2023/01/31 14:20:06;;;;;;;;;12.40;12.00;;;;;8.59;47.97;98577.09;6192823;27;96711;-67
2023/01/31 14:23:31;;;;;;;;;15.50;15.00;;;;;8.65;47.92;98570.81;6193168;27;96296;-67
2023/01/31 14:26:52;;;;;;;;;14.00;13.00;;;;;8.65;47.90;98570.00;6191901;27;96539;-67
2023/01/31 14:30:03;;;;;;;;;13.50;12.50;;;;;8.59;47.87;98571.72;6195463;27;96163;-67
2023/01/31 14:59:55;;;;;;;;;12.00;12.00;;;;;7.99;49.40;98554.22;6142962;28;96850;-68
2023/01/31 15:03:05;;;;;;;;;12.50;12.00;;;;;7.97;49.99;98555.47;6144622;28;96648;-67
2023/01/31 15:06:13;;;;;;;;;15.50;13.50;;;;;7.94;49.87;98559.41;6144829;28;96294;-68
2023/01/31 15:09:27;;;;;;;;;11.00;10.40;;;;;7.83;50.60;98547.47;6145797;28;96213;-68
2023/01/31 15:12:58;;;;;;;;;11.20;10.80;;;;;7.90;50.78;98555.50;6131364;28;97125;-67
2023/01/31 15:16:06;;;;;;;;;17.00;14.60;;;;;7.77;51.57;98548.31;6135569;28;96321;-67
2023/01/31 15:19:14;;;;;;;;;15.40;14.40;;;;;7.74;52.13;98548.75;6145318;28;96308;-67
2023/01/31 15:22:20;;;;;;;;;11.00;11.00;;;;;7.61;52.79;98545.28;6129287;28;96254;-67